Calapan, Philippines
Current Conditions -  °F | °C
As of 1:00 AM on Monday 22 Dec 2014 (Local Time) from RPLL Reporting Station
Few Clouds Few Clouds  
Wind Chill: 77°   Ceiling: Unl
Heat Index: 78°   Visibility: 6mi
Dew Point: 77°   Wind: 3mph
Humidity: 100%   Direction: 270°W
Pressure: 29.88"   Gusts: NA
Location:  13.42°N, 121.19°E
Report Text: RPLL 211700Z 27003KT 250V310 9999 FEW025 25/25 Q1012 NOSIG RMKA2988
Loading
Personal Weather Stations






























Interactive Weather Map New forecast layout! Learn more

10-Day Weather Forecast

Advertisements
Track Severe Weather on mobile